Time;durP1;ratioP1;P1;durP2;ratioP2;P2;SDS_P1;SDS_P2;PMS_P1;PMS_P2;Temp;Humidity;BMP_temperature;BMP_pressure;BME280_temperature;BME280_humidity;BME280_pressure;Samples;Min_cycle;Max_cycle;Signal;HPM_P1;HPM_P2
2022/12/24 00:01:13;;;;;;;43.30;21.60;;;7.20;99.90;;;;;;5033555;28;20241;-75
2022/12/24 00:03:39;;;;;;;45.90;21.90;;;7.20;99.90;;;;;;5035020;28;20175;-76
2022/12/24 00:06:06;;;;;;;43.28;22.08;;;7.20;99.90;;;;;;5066763;28;20188;-75
2022/12/24 00:08:32;;;;;;;41.67;20.90;;;7.20;99.90;;;;;;5035179;28;20183;-75
2022/12/24 00:10:58;;;;;;;41.78;20.90;;;7.30;99.90;;;;;;5028055;28;20546;-78
2022/12/24 00:13:24;;;;;;;43.13;21.20;;;7.30;99.90;;;;;;5032856;28;20188;-76
2022/12/24 00:15:50;;;;;;;40.85;21.15;;;7.20;99.90;;;;;;5034213;28;20238;-76
2022/12/24 00:18:16;;;;;;;45.03;22.58;;;7.20;99.90;;;;;;5050625;28;20241;-78
2022/12/24 00:20:48;;;;;;;41.75;22.60;;;7.20;99.90;;;;;;5023807;28;20310;-76
2022/12/24 00:23:15;;;;;;;40.85;21.48;;;7.20;99.90;;;;;;5034947;28;20188;-75
2022/12/24 00:25:41;;;;;;;44.70;22.17;;;7.20;99.90;;;;;;5023675;28;20188;-77
2022/12/24 00:28:06;;;;;;;43.90;21.98;;;7.20;99.90;;;;;;5030235;28;20181;-76
2022/12/24 00:30:32;;;;;;;47.55;23.38;;;7.20;99.90;;;;;;5039012;28;20215;-82
2022/12/24 00:32:58;;;;;;;44.33;22.85;;;7.20;99.90;;;;;;5039680;28;20700;-75
2022/12/24 00:35:24;;;;;;;46.72;22.58;;;7.20;99.90;;;;;;5025302;28;20278;-77
2022/12/24 00:37:50;;;;;;;50.03;23.23;;;7.20;99.90;;;;;;5034591;28;20192;-76
2022/12/24 00:40:16;;;;;;;44.53;22.45;;;7.20;99.90;;;;;;5047513;28;20274;-76
2022/12/24 00:42:42;;;;;;;44.65;21.45;;;7.20;99.90;;;;;;5029806;28;20199;-76
2022/12/24 00:45:09;;;;;;;45.10;22.17;;;7.20;99.90;;;;;;5034047;28;20172;-76
2022/12/24 00:47:36;;;;;;;44.88;22.33;;;7.20;99.90;;;;;;5017182;28;20568;-76
2022/12/24 00:50:02;;;;;;;44.25;22.05;;;7.20;99.90;;;;;;5022398;28;20204;-75
2022/12/24 00:52:27;;;;;;;44.35;22.45;;;7.20;99.90;;;;;;5029263;28;20659;-77
2022/12/24 00:54:53;;;;;;;48.38;23.60;;;7.20;99.90;;;;;;5043602;28;20227;-76
2022/12/24 00:57:19;;;;;;;48.92;22.48;;;7.30;99.90;;;;;;5025783;28;20610;-75
2022/12/24 00:59:45;;;;;;;46.22;22.35;;;7.30;99.90;;;;;;5035120;28;20184;-77
2022/12/24 01:02:10;;;;;;;45.10;22.48;;;7.30;99.90;;;;;;5026420;28;20188;-75
2022/12/24 01:07:20;;;;;;;46.28;22.98;;;7.30;99.90;;;;;;5017843;28;20257;-76
2022/12/24 01:09:46;;;;;;;44.05;23.05;;;7.30;99.90;;;;;;5031952;28;20691;-76
2022/12/24 01:12:11;;;;;;;47.10;22.90;;;7.20;99.90;;;;;;5048726;28;20538;-74
2022/12/24 01:14:37;;;;;;;49.17;22.85;;;7.30;99.90;;;;;;5026748;28;20187;-77
2022/12/24 01:17:04;;;;;;;49.05;23.13;;;7.30;99.90;;;;;;5066269;28;20217;-77
2022/12/24 01:19:29;;;;;;;46.60;23.77;;;7.30;99.90;;;;;;5031803;28;20226;-77
2022/12/24 01:21:56;;;;;;;50.45;23.30;;;7.30;99.90;;;;;;5034135;28;20648;-77
2022/12/24 01:24:22;;;;;;;47.10;23.73;;;7.30;99.90;;;;;;5032852;28;20666;-77
2022/12/24 01:26:48;;;;;;;50.22;25.38;;;7.30;99.90;;;;;;5015870;28;20196;-78
2022/12/24 01:29:14;;;;;;;45.63;24.02;;;7.40;99.90;;;;;;5047419;28;20304;-77
2022/12/24 01:31:40;;;;;;;47.75;23.42;;;7.30;99.90;;;;;;5033635;28;20191;-77
2022/12/24 01:34:06;;;;;;;46.70;23.55;;;7.30;99.90;;;;;;5022272;28;20557;-78
2022/12/24 01:36:32;;;;;;;45.65;23.67;;;7.40;99.90;;;;;;5033395;28;20187;-77
2022/12/24 01:38:57;;;;;;;47.15;23.83;;;7.40;99.90;;;;;;5033315;28;20563;-81
2022/12/24 01:44:18;;;;;;;47.17;22.80;;;7.40;99.90;;;;;;5029720;28;20576;-77
2022/12/24 01:46:45;;;;;;;48.58;23.98;;;7.40;99.90;;;;;;5026600;28;20765;-76
2022/12/24 01:49:13;;;;;;;43.78;24.08;;;7.40;99.90;;;;;;5014484;28;20231;-77
2022/12/24 01:51:48;;;;;;;50.58;24.42;;;7.40;99.90;;;;;;5050969;28;20193;-76
2022/12/24 01:54:25;;;;;;;45.40;23.75;;;7.40;99.90;;;;;;5044473;28;20180;-76
2022/12/24 01:56:59;;;;;;;46.63;23.38;;;7.40;99.90;;;;;;5022555;28;20251;-76
2022/12/24 01:59:24;;;;;;;46.50;24.02;;;7.40;99.90;;;;;;5046500;28;20636;-77
2022/12/24 02:01:52;;;;;;;48.58;24.52;;;7.30;99.90;;;;;;5021780;28;20268;-76
2022/12/24 02:04:36;;;;;;;42.60;23.45;;;7.30;99.90;;;;;;5014779;28;20904;-77
2022/12/24 02:07:03;;;;;;;49.50;24.23;;;7.40;99.90;;;;;;5030270;28;20176;-76
2022/12/24 02:09:29;;;;;;;51.03;25.25;;;7.40;99.90;;;;;;5046440;28;20210;-73
2022/12/24 02:11:56;;;;;;;49.03;24.88;;;7.40;99.90;;;;;;5029485;28;20243;-77
2022/12/24 02:14:25;;;;;;;47.08;24.30;;;7.40;99.90;;;;;;5029255;28;20219;-76
2022/12/24 02:16:56;;;;;;;48.85;24.33;;;7.40;99.90;;;;;;5013242;28;20262;-76
2022/12/24 02:20:10;;;;;;;49.53;24.98;;;7.40;99.90;;;;;;5014193;28;20291;-76
2022/12/24 02:23:08;;;;;;;46.95;24.60;;;7.40;99.90;;;;;;5015679;28;20627;-77
2022/12/24 02:25:52;;;;;;;48.10;24.05;;;7.40;99.90;;;;;;5058159;28;20271;-80
2022/12/24 02:28:43;;;;;;;54.05;25.55;;;7.40;99.90;;;;;;5027696;28;20180;-75
2022/12/24 02:31:19;;;;;;;48.60;24.15;;;7.40;99.90;;;;;;5032094;28;20261;-75
2022/12/24 02:33:53;;;;;;;49.60;24.27;;;7.40;99.90;;;;;;5031953;28;20694;-75
2022/12/24 02:36:34;;;;;;;52.47;26.15;;;7.40;99.90;;;;;;5030437;28;20219;-74
2022/12/24 02:39:01;;;;;;;56.45;26.23;;;7.40;99.90;;;;;;5031093;28;20210;-80
2022/12/24 02:44:21;;;;;;;53.10;25.70;;;7.50;99.90;;;;;;5026789;28;20248;-75
2022/12/24 02:46:48;;;;;;;53.15;25.95;;;7.50;99.90;;;;;;5031966;28;20180;-75
2022/12/24 02:49:14;;;;;;;60.05;27.17;;;7.50;99.90;;;;;;5030577;28;20567;-75
2022/12/24 02:51:40;;;;;;;60.17;26.88;;;7.50;99.90;;;;;;5032635;28;20233;-75
2022/12/24 02:54:06;;;;;;;54.90;26.15;;;7.40;99.90;;;;;;5027095;28;20176;-76
2022/12/24 02:56:41;;;;;;;54.72;25.88;;;7.40;99.90;;;;;;5017925;28;20311;-74
2022/12/24 02:59:25;;;;;;;49.25;24.52;;;7.50;99.90;;;;;;5022433;28;20183;-75
2022/12/24 03:02:03;;;;;;;53.85;25.17;;;7.50;99.90;;;;;;5014964;28;20187;-75
2022/12/24 03:04:56;;;;;;;52.33;25.13;;;7.60;99.90;;;;;;5029051;28;20315;-74
2022/12/24 03:07:33;;;;;;;52.55;25.08;;;7.40;99.90;;;;;;5027105;28;20187;-75
2022/12/24 03:10:11;;;;;;;53.58;25.55;;;7.50;99.90;;;;;;5046374;28;20195;-74
2022/12/24 03:12:54;;;;;;;48.50;23.92;;;7.50;99.90;;;;;;5032338;28;20180;-76
2022/12/24 03:15:25;;;;;;;47.22;24.58;;;7.60;99.90;;;;;;5025811;28;20184;-76
2022/12/24 03:17:56;;;;;;;50.33;24.30;;;7.60;99.90;;;;;;5031889;28;20215;-76
2022/12/24 03:20:55;;;;;;;50.22;24.83;;;7.60;99.90;;;;;;5031830;28;20187;-76
2022/12/24 03:23:21;;;;;;;54.28;25.08;;;7.60;99.90;;;;;;5024827;28;20203;-75
2022/12/24 03:25:48;;;;;;;60.15;27.23;;;7.70;99.90;;;;;;5032043;28;20231;-75
2022/12/24 03:28:16;;;;;;;60.08;27.88;;;7.70;99.90;;;;;;5032100;28;20184;-74
2022/12/24 03:30:43;;;;;;;53.60;26.05;;;7.80;99.90;;;;;;5031057;28;20247;-75
2022/12/24 03:33:11;;;;;;;50.60;24.83;;;7.80;99.90;;;;;;5029106;28;20194;-77
2022/12/24 03:35:37;;;;;;;53.33;24.27;;;7.80;99.90;;;;;;5045668;28;20263;-75
2022/12/24 03:38:03;;;;;;;52.58;24.98;;;7.90;99.90;;;;;;5033450;28;20613;-75
2022/12/24 03:40:29;;;;;;;49.08;23.92;;;7.90;99.90;;;;;;5037509;28;20183;-76
2022/12/24 03:42:55;;;;;;;57.30;24.60;;;7.90;99.90;;;;;;5036822;28;20186;-75
2022/12/24 03:45:21;;;;;;;50.95;24.20;;;8.00;99.90;;;;;;5034194;28;20212;-75
2022/12/24 03:47:46;;;;;;;53.83;25.52;;;8.00;99.90;;;;;;5035603;28;20226;-80
2022/12/24 03:50:12;;;;;;;56.47;25.88;;;8.00;99.90;;;;;;5034825;28;20219;-76
2022/12/24 03:52:38;;;;;;;47.63;24.58;;;8.10;99.90;;;;;;5051317;28;20192;-76
2022/12/24 03:55:04;;;;;;;51.97;23.80;;;8.10;99.90;;;;;;5032614;28;20505;-75
2022/12/24 03:57:30;;;;;;;37.30;18.85;;;8.20;99.90;;;;;;5034702;28;20234;-75
2022/12/24 03:59:55;;;;;;;43.03;20.15;;;8.30;99.90;;;;;;5034649;28;20636;-76
2022/12/24 04:02:21;;;;;;;39.20;18.10;;;8.20;99.90;;;;;;5066814;28;20195;-76
2022/12/24 04:04:47;;;;;;;47.03;18.20;;;8.30;99.90;;;;;;5033201;28;20273;-78
2022/12/24 04:07:13;;;;;;;44.92;19.13;;;8.30;99.90;;;;;;5034292;28;20666;-75
2022/12/24 04:09:39;;;;;;;38.35;16.67;;;8.40;99.90;;;;;;5034465;28;20246;-75
2022/12/24 04:12:06;;;;;;;30.90;16.10;;;8.40;99.90;;;;;;5066887;28;20184;-75
2022/12/24 04:14:32;;;;;;;33.20;15.52;;;8.40;99.90;;;;;;5030762;28;20176;-76
2022/12/24 04:16:57;;;;;;;30.83;14.75;;;8.50;99.90;;;;;;5027096;28;20618;-78
2022/12/24 04:19:23;;;;;;;30.58;13.88;;;8.50;99.90;;;;;;5048154;28;20651;-77
2022/12/24 04:21:49;;;;;;;36.28;14.25;;;8.50;99.90;;;;;;5033223;28;20188;-75
2022/12/24 04:24:15;;;;;;;33.00;15.05;;;8.50;99.90;;;;;;5033779;28;20202;-75
2022/12/24 04:26:40;;;;;;;33.60;14.75;;;8.50;99.90;;;;;;5032570;28;20188;-75
2022/12/24 04:29:06;;;;;;;31.10;14.13;;;8.50;99.90;;;;;;5031654;28;20180;-75
2022/12/24 04:31:32;;;;;;;31.98;13.75;;;8.50;99.90;;;;;;5034314;28;20557;-76
2022/12/24 04:33:58;;;;;;;38.13;12.35;;;8.60;99.90;;;;;;5034969;28;20587;-80
2022/12/24 04:36:23;;;;;;;30.40;13.02;;;8.60;99.90;;;;;;5035230;28;20207;-76
2022/12/24 04:38:49;;;;;;;36.72;12.10;;;8.60;99.90;;;;;;5035739;28;20184;-75
2022/12/24 04:41:23;;;;;;;42.22;12.43;;;8.60;99.90;;;;;;5031565;28;20199;-75
2022/12/24 04:43:49;;;;;;;39.03;12.23;;;8.60;99.90;;;;;;5023805;28;20188;-75
2022/12/24 04:46:18;;;;;;;38.08;11.57;;;8.70;99.90;;;;;;5032423;28;20640;-75
2022/12/24 04:48:45;;;;;;;42.25;11.02;;;8.70;99.90;;;;;;5035315;28;20176;-75
2022/12/24 04:51:11;;;;;;;42.92;11.10;;;8.80;99.90;;;;;;5032922;28;20215;-75
2022/12/24 04:53:38;;;;;;;47.25;10.05;;;8.80;99.90;;;;;;5026129;28;20658;-76
2022/12/24 04:56:07;;;;;;;41.15;9.60;;;8.80;99.90;;;;;;5031705;28;20651;-75
2022/12/24 04:58:33;;;;;;;45.53;8.73;;;8.80;99.90;;;;;;5034279;28;20276;-75
2022/12/24 05:01:04;;;;;;;44.78;7.53;;;8.80;99.90;;;;;;5019979;28;20287;-75
2022/12/24 05:03:30;;;;;;;48.22;7.28;;;8.80;99.90;;;;;;5035172;28;20180;-78
2022/12/24 05:06:07;;;;;;;39.20;6.57;;;8.90;99.90;;;;;;5046515;28;20183;-76
2022/12/24 05:08:33;;;;;;;48.22;6.25;;;8.90;99.90;;;;;;5047226;28;20238;-75
2022/12/24 05:11:00;;;;;;;53.55;6.28;;;8.90;99.90;;;;;;5033654;28;20212;-76
2022/12/24 05:13:27;;;;;;;50.22;6.65;;;8.90;99.90;;;;;;5031178;28;20188;-80
2022/12/24 05:15:53;;;;;;;38.10;6.45;;;8.90;99.90;;;;;;5019222;28;20260;-76
2022/12/24 05:18:20;;;;;;;49.60;7.25;;;8.90;99.90;;;;;;5044505;28;20191;-76
2022/12/24 05:20:46;;;;;;;53.55;7.45;;;8.90;99.90;;;;;;5033188;28;20219;-76
2022/12/24 05:26:26;;;;;;;49.40;7.80;;;8.90;99.90;;;;;;5033172;28;20237;-76
2022/12/24 05:28:54;;;;;;;49.95;8.07;;;8.90;99.90;;;;;;5034174;28;20164;-76
2022/12/24 05:31:21;;;;;;;49.72;6.85;;;8.90;99.90;;;;;;5032811;28;20222;-77
2022/12/24 05:33:47;;;;;;;51.75;6.70;;;9.00;99.90;;;;;;5021890;28;20209;-78
2022/12/24 05:36:14;;;;;;;54.42;6.68;;;9.00;99.90;;;;;;5063559;28;20196;-77
2022/12/24 05:38:40;;;;;;;51.00;5.97;;;8.90;99.90;;;;;;5032187;28;20196;-76
2022/12/24 05:41:08;;;;;;;53.60;6.18;;;9.00;99.90;;;;;;5028325;28;20362;-76
2022/12/24 05:43:35;;;;;;;48.05;6.25;;;9.00;99.90;;;;;;5064913;28;20303;-76
2022/12/24 05:46:02;;;;;;;38.03;5.90;;;9.00;99.90;;;;;;5022940;28;20238;-76
2022/12/24 05:48:28;;;;;;;61.10;6.40;;;9.00;99.90;;;;;;5014086;28;20177;-76
2022/12/24 05:50:54;;;;;;;41.50;6.07;;;9.00;99.90;;;;;;5060822;28;20215;-76
2022/12/24 05:53:21;;;;;;;47.78;6.28;;;9.00;99.90;;;;;;5033229;28;20187;-76
2022/12/24 05:55:47;;;;;;;53.55;6.18;;;9.00;99.90;;;;;;5040577;28;20237;-76
2022/12/24 05:58:13;;;;;;;44.95;5.95;;;9.10;99.90;;;;;;5015691;28;20283;-76
2022/12/24 06:00:39;;;;;;;53.63;6.85;;;9.10;99.90;;;;;;5022504;28;20187;-77
2022/12/24 06:03:05;;;;;;;55.42;6.95;;;9.00;99.90;;;;;;5013202;28;20275;-75
2022/12/24 06:05:31;;;;;;;47.30;6.10;;;9.10;99.90;;;;;;5035187;28;20225;-76
2022/12/24 06:07:56;;;;;;;51.13;6.45;;;9.10;99.90;;;;;;5034222;28;20233;-76
2022/12/24 06:10:22;;;;;;;56.05;6.22;;;9.10;99.90;;;;;;5032039;28;20574;-77
2022/12/24 06:12:48;;;;;;;54.20;6.20;;;9.00;99.90;;;;;;5027588;28;20203;-76
2022/12/24 06:15:14;;;;;;;42.95;5.28;;;9.10;99.90;;;;;;5027804;28;20192;-76
2022/12/24 06:17:39;;;;;;;45.25;5.50;;;9.10;99.90;;;;;;5014011;28;20177;-76
2022/12/24 06:20:06;;;;;;;52.33;7.43;;;9.10;99.90;;;;;;5019797;28;20191;-77
2022/12/24 06:22:31;;;;;;;43.05;6.05;;;9.10;99.90;;;;;;5013043;28;20200;-76
2022/12/24 06:24:57;;;;;;;51.03;6.68;;;9.10;99.90;;;;;;5020255;28;20190;-76
2022/12/24 06:27:23;;;;;;;50.65;6.00;;;9.10;99.90;;;;;;5023356;28;20188;-77
2022/12/24 06:29:49;;;;;;;53.25;6.82;;;9.10;99.90;;;;;;5028901;28;20204;-75
2022/12/24 06:32:15;;;;;;;47.92;6.30;;;9.10;99.90;;;;;;5032860;28;20529;-76
2022/12/24 06:34:40;;;;;;;55.45;5.88;;;9.10;99.90;;;;;;5020734;28;20279;-77
2022/12/24 06:37:06;;;;;;;62.55;6.30;;;9.10;99.90;;;;;;5032316;28;20211;-76
2022/12/24 06:39:32;;;;;;;53.50;6.18;;;9.10;99.90;;;;;;5028762;28;20282;-76
2022/12/24 06:41:58;;;;;;;55.30;6.22;;;9.10;99.90;;;;;;5025590;28;20917;-76
2022/12/24 06:44:23;;;;;;;45.10;5.60;;;9.10;99.90;;;;;;5025383;28;20511;-76
2022/12/24 06:46:49;;;;;;;52.13;5.45;;;9.10;99.90;;;;;;5021699;28;20272;-76
2022/12/24 06:49:15;;;;;;;46.40;6.35;;;9.10;99.90;;;;;;5014159;28;20208;-77
2022/12/24 06:51:41;;;;;;;63.58;6.25;;;9.10;99.90;;;;;;5032967;28;20187;-78
2022/12/24 06:54:06;;;;;;;56.70;6.75;;;9.10;99.90;;;;;;5018555;28;20249;-77
2022/12/24 06:56:32;;;;;;;52.53;6.03;;;9.20;99.90;;;;;;5032100;28;20228;-76
2022/12/24 06:58:58;;;;;;;56.10;5.97;;;9.10;99.90;;;;;;5032368;28;20160;-79
2022/12/24 07:01:24;;;;;;;56.83;7.05;;;9.20;99.90;;;;;;5034051;28;20200;-75
2022/12/24 07:03:50;;;;;;;54.90;6.40;;;9.20;99.90;;;;;;5017998;28;20214;-76
2022/12/24 07:06:27;;;;;;;60.65;6.28;;;9.10;99.90;;;;;;5017676;28;20187;-76
2022/12/24 07:08:53;;;;;;;58.40;6.88;;;9.20;99.90;;;;;;5032288;28;20167;-77
2022/12/24 07:11:19;;;;;;;52.60;6.53;;;9.20;99.90;;;;;;5031267;28;20208;-75
2022/12/24 07:13:45;;;;;;;50.20;6.07;;;9.20;99.90;;;;;;5031565;28;20192;-81
2022/12/24 07:16:11;;;;;;;55.80;6.47;;;9.20;99.90;;;;;;5026003;28;20562;-79
2022/12/24 07:18:37;;;;;;;50.63;6.72;;;9.20;99.90;;;;;;5064010;28;20203;-74
2022/12/24 07:21:04;;;;;;;49.50;6.07;;;9.20;99.90;;;;;;5019283;28;20188;-75
2022/12/24 07:23:30;;;;;;;42.95;6.53;;;9.20;99.90;;;;;;5016510;28;20222;-75
2022/12/24 07:26:04;;;;;;;58.38;6.80;;;9.20;99.90;;;;;;5062158;28;20188;-75
2022/12/24 07:28:30;;;;;;;54.15;6.75;;;9.20;99.90;;;;;;5035467;28;20214;-75
2022/12/24 07:30:56;;;;;;;62.10;7.05;;;9.20;99.90;;;;;;5033946;28;20250;-77
2022/12/24 07:33:23;;;;;;;44.85;6.10;;;9.20;99.90;;;;;;5020700;28;20211;-81
2022/12/24 07:35:56;;;;;;;35.42;5.78;;;9.20;99.90;;;;;;5043387;28;20548;-75
2022/12/24 07:38:21;;;;;;;50.70;5.70;;;9.20;99.90;;;;;;5051137;28;20243;-75
2022/12/24 07:40:47;;;;;;;58.83;6.75;;;9.10;99.90;;;;;;5021464;28;20195;-75
2022/12/24 07:43:13;;;;;;;59.78;6.13;;;9.10;99.90;;;;;;5020441;28;20180;-75
2022/12/24 07:45:39;;;;;;;33.80;5.00;;;9.10;99.90;;;;;;5028269;28;20523;-79
2022/12/24 07:48:05;;;;;;;44.92;5.70;;;9.10;99.90;;;;;;5015983;28;20181;-75
2022/12/24 07:50:30;;;;;;;48.85;6.15;;;9.00;99.90;;;;;;5023803;28;20230;-74
2022/12/24 07:52:56;;;;;;;65.70;6.97;;;9.00;99.90;;;;;;5026445;28;20192;-77
2022/12/24 07:55:22;;;;;;;55.75;8.10;;;9.00;99.90;;;;;;5048832;28;20234;-75
2022/12/24 07:57:48;;;;;;;48.08;6.93;;;9.00;99.90;;;;;;5035175;28;20266;-75
2022/12/24 08:00:14;;;;;;;46.58;7.30;;;9.00;99.90;;;;;;5034693;28;20195;-77
2022/12/24 08:02:39;;;;;;;50.65;7.40;;;9.00;99.90;;;;;;5049904;28;20243;-75
2022/12/24 08:05:06;;;;;;;43.55;6.43;;;9.00;99.90;;;;;;5044928;28;20579;-76
2022/12/24 08:07:32;;;;;;;53.25;14.77;;;9.00;99.90;;;;;;5016789;28;20216;-76
2022/12/24 08:09:57;;;;;;;43.20;7.22;;;9.10;99.90;;;;;;5045590;28;20715;-75
2022/12/24 08:12:23;;;;;;;60.40;7.40;;;9.10;99.90;;;;;;5033078;28;20192;-75
2022/12/24 08:14:49;;;;;;;44.45;5.93;;;9.10;99.90;;;;;;5024123;28;20180;-75
2022/12/24 08:17:14;;;;;;;49.88;7.50;;;9.10;99.90;;;;;;5034214;28;20195;-75
2022/12/24 08:19:40;;;;;;;43.05;6.35;;;9.10;99.90;;;;;;5023562;28;20184;-75
2022/12/24 08:22:06;;;;;;;53.53;7.45;;;9.10;99.90;;;;;;5028600;28;20579;-77
2022/12/24 08:24:32;;;;;;;50.08;7.07;;;9.20;99.90;;;;;;5029513;28;20188;-77
2022/12/24 08:26:58;;;;;;;47.38;6.55;;;9.20;99.90;;;;;;5027406;28;20212;-76
2022/12/24 08:29:23;;;;;;;41.65;6.38;;;9.20;99.90;;;;;;5030881;28;20282;-75
2022/12/24 08:31:49;;;;;;;56.53;7.20;;;9.20;99.90;;;;;;5032434;28;20188;-76
2022/12/24 08:34:15;;;;;;;47.70;6.90;;;9.20;99.90;;;;;;5025365;28;20618;-75
2022/12/24 08:36:40;;;;;;;49.03;7.65;;;9.30;99.90;;;;;;5050368;28;20196;-76
2022/12/24 08:39:07;;;;;;;52.78;7.22;;;9.30;99.90;;;;;;5033708;28;20180;-78
2022/12/24 08:41:33;;;;;;;49.67;7.97;;;9.30;99.90;;;;;;5033527;28;20214;-75
2022/12/24 08:43:59;;;;;;;49.75;6.68;;;9.30;99.90;;;;;;5025984;28;20191;-81
2022/12/24 08:46:25;;;;;;;57.20;7.82;;;9.30;99.90;;;;;;5034074;28;20546;-77
2022/12/24 08:48:51;;;;;;;54.03;7.18;;;9.40;99.90;;;;;;5034519;28;20203;-77
2022/12/24 08:51:18;;;;;;;49.58;7.35;;;9.40;99.90;;;;;;5048702;28;20231;-76
2022/12/24 08:53:44;;;;;;;44.03;7.22;;;9.40;99.90;;;;;;5033002;28;20687;-77
2022/12/24 08:56:10;;;;;;;57.45;7.38;;;9.40;99.90;;;;;;5022253;28;20181;-77
2022/12/24 08:58:36;;;;;;;50.95;6.30;;;9.40;99.90;;;;;;5023933;28;20275;-77
2022/12/24 09:01:14;;;;;;;48.40;7.43;;;9.50;99.90;;;;;;5033430;28;20664;-77
2022/12/24 09:03:39;;;;;;;47.90;6.38;;;9.50;99.90;;;;;;5019565;28;20187;-77
2022/12/24 09:06:06;;;;;;;51.03;6.43;;;9.50;99.90;;;;;;5044393;28;20183;-76
2022/12/24 09:08:32;;;;;;;50.75;10.63;;;9.50;99.90;;;;;;5033052;28;20273;-77
2022/12/24 09:11:03;;;;;;;56.55;13.82;;;9.50;99.90;;;;;;5021712;28;20274;-76
2022/12/24 09:13:29;;;;;;;41.92;6.43;;;9.50;99.90;;;;;;5025322;28;20195;-76
2022/12/24 09:15:55;;;;;;;38.40;6.53;;;9.50;99.90;;;;;;5043758;28;20677;-76
2022/12/24 09:18:20;;;;;;;42.72;6.57;;;9.50;99.90;;;;;;5026137;28;20185;-80
2022/12/24 09:20:46;;;;;;;49.20;6.63;;;9.60;99.90;;;;;;5030686;28;20234;-76
2022/12/24 09:23:12;;;;;;;41.75;5.75;;;9.60;99.90;;;;;;5033803;28;20175;-76
2022/12/24 09:25:42;;;;;;;43.75;6.50;;;9.60;99.90;;;;;;5032026;28;20254;-76
2022/12/24 09:28:07;;;;;;;46.85;6.78;;;9.60;99.90;;;;;;5065388;28;20250;-76
2022/12/24 09:30:33;;;;;;;44.70;6.75;;;9.60;99.90;;;;;;5027148;28;20207;-80
2022/12/24 09:32:59;;;;;;;52.38;6.45;;;9.70;99.90;;;;;;5060936;28;20345;-76
2022/12/24 09:35:25;;;;;;;51.53;6.43;;;9.70;99.90;;;;;;5021302;28;20267;-77
2022/12/24 09:38:01;;;;;;;40.65;6.43;;;9.80;99.90;;;;;;5026447;28;20266;-76
2022/12/24 09:40:39;;;;;;;49.92;6.50;;;9.80;99.90;;;;;;5030362;28;20191;-76
2022/12/24 09:43:14;;;;;;;42.53;6.60;;;9.90;99.90;;;;;;5030839;28;20184;-76
2022/12/24 09:46:09;;;;;;;36.13;5.65;;;9.90;99.90;;;;;;5042011;28;20186;-75
2022/12/24 09:48:39;;;;;;;37.75;5.82;;;9.90;99.90;;;;;;5012584;28;20621;-75
2022/12/24 09:51:11;;;;;;;46.03;6.20;;;9.90;99.90;;;;;;5064787;28;20200;-76
2022/12/24 09:53:55;;;;;;;51.45;6.93;;;9.90;99.90;;;;;;5033076;28;20263;-79
2022/12/24 09:56:39;;;;;;;48.60;6.53;;;9.90;99.90;;;;;;5029326;28;20743;-78
2022/12/24 09:59:10;;;;;;;44.45;5.90;;;10.00;99.90;;;;;;5022384;28;20176;-80
2022/12/24 10:01:35;;;;;;;45.95;6.25;;;9.90;99.90;;;;;;5022477;28;20187;-75
2022/12/24 10:04:12;;;;;;;44.15;6.78;;;10.00;99.90;;;;;;5031602;28;20696;-82
2022/12/24 10:07:07;;;;;;;45.15;6.22;;;10.10;99.90;;;;;;5072891;28;20635;-77
2022/12/24 10:09:58;;;;;;;48.53;6.40;;;10.20;99.90;;;;;;5027932;28;20215;-76
2022/12/24 10:12:46;;;;;;;36.90;6.15;;;10.30;99.90;;;;;;5033042;28;20176;-79
2022/12/24 10:15:23;;;;;;;44.58;6.80;;;10.40;99.90;;;;;;5021911;28;20268;-74
2022/12/24 10:17:58;;;;;;;40.67;5.57;;;10.40;99.90;;;;;;5041650;28;20183;-77
2022/12/24 10:20:46;;;;;;;46.50;6.22;;;10.40;99.90;;;;;;5032610;28;20543;-75
2022/12/24 10:23:29;;;;;;;45.78;6.85;;;10.40;99.90;;;;;;5031888;28;20246;-74
2022/12/24 10:26:22;;;;;;;46.13;6.78;;;10.40;99.90;;;;;;5031739;28;20218;-75
2022/12/24 10:29:07;;;;;;;39.67;6.45;;;10.40;99.90;;;;;;5058338;28;20182;-75
2022/12/24 10:31:43;;;;;;;49.42;6.80;;;10.60;99.90;;;;;;5032374;28;20196;-75
2022/12/24 10:34:18;;;;;;;44.35;7.03;;;10.80;99.90;;;;;;5029092;28;20298;-82
2022/12/24 10:36:44;;;;;;;42.70;6.38;;;10.90;99.90;;;;;;5042520;28;20195;-78
2022/12/24 10:39:17;;;;;;;38.10;6.32;;;11.00;99.90;;;;;;5045933;28;20188;-77
2022/12/24 10:41:44;;;;;;;44.25;6.10;;;10.90;99.90;;;;;;5025244;28;20176;-75
2022/12/24 10:44:17;;;;;;;48.75;6.90;;;10.90;99.90;;;;;;5028250;28;20261;-75
2022/12/24 10:46:44;;;;;;;36.85;6.03;;;10.90;99.90;;;;;;5024014;28;20596;-77
2022/12/24 10:49:35;;;;;;;45.55;6.38;;;10.90;99.90;;;;;;5033024;28;20211;-82
2022/12/24 10:52:09;;;;;;;41.78;5.68;;;10.90;99.90;;;;;;5030275;28;20196;-76
2022/12/24 10:54:38;;;;;;;53.67;7.03;;;10.80;99.90;;;;;;5050953;28;20180;-76
2022/12/24 10:57:05;;;;;;;45.50;7.22;;;10.80;99.90;;;;;;5035501;28;20246;-76
2022/12/24 10:59:50;;;;;;;48.85;6.10;;;10.80;99.90;;;;;;5063414;28;20183;-76
2022/12/24 11:02:29;;;;;;;41.75;6.90;;;10.80;99.90;;;;;;5035236;28;20183;-77
2022/12/24 11:04:55;;;;;;;42.20;6.60;;;10.70;99.90;;;;;;5062087;28;20228;-76
2022/12/24 11:07:23;;;;;;;40.00;6.43;;;10.70;99.90;;;;;;5034718;28;20180;-77
2022/12/24 11:10:01;;;;;;;44.60;6.03;;;10.70;99.90;;;;;;5027870;28;20217;-79
2022/12/24 11:12:44;;;;;;;44.20;6.35;;;10.70;99.90;;;;;;5034769;28;20602;-77
2022/12/24 11:15:21;;;;;;;40.45;6.15;;;10.60;99.90;;;;;;5034196;28;20610;-76
2022/12/24 11:17:58;;;;;;;44.85;6.28;;;10.60;99.90;;;;;;5034965;28;20167;-76
2022/12/24 11:20:28;;;;;;;43.65;6.82;;;10.60;99.90;;;;;;5034372;28;20218;-76
2022/12/24 11:22:55;;;;;;;46.72;6.85;;;10.60;99.90;;;;;;5027278;28;20288;-76
2022/12/24 11:25:33;;;;;;;43.70;5.97;;;10.60;99.90;;;;;;5034830;28;20559;-76
2022/12/24 11:28:20;;;;;;;45.20;6.22;;;10.60;99.90;;;;;;5036062;28;20171;-75
2022/12/24 11:31:21;;;;;;;35.78;6.07;;;10.60;99.90;;;;;;5030855;28;20744;-77
2022/12/24 11:33:51;;;;;;;36.17;5.43;;;10.60;99.90;;;;;;5028456;28;20204;-84
2022/12/24 11:36:21;;;;;;;40.78;5.40;;;10.60;99.90;;;;;;5033062;28;20199;-76
2022/12/24 11:38:58;;;;;;;39.15;6.10;;;10.60;99.90;;;;;;5034747;28;20180;-76
2022/12/24 11:41:25;;;;;;;43.13;5.82;;;10.60;99.90;;;;;;5034385;28;20175;-75
2022/12/24 11:44:06;;;;;;;31.38;5.72;;;10.60;99.90;;;;;;5034188;28;20203;-79
2022/12/24 11:46:51;;;;;;;42.13;6.10;;;10.60;99.90;;;;;;5020096;28;20189;-77
2022/12/24 11:49:22;;;;;;;37.90;5.70;;;10.60;99.90;;;;;;5017673;28;20251;-76
2022/12/24 11:52:10;;;;;;;35.60;5.60;;;10.60;99.90;;;;;;5035755;28;20171;-75
2022/12/24 11:54:58;;;;;;;27.73;5.10;;;10.60;99.90;;;;;;5029977;28;20176;-76
2022/12/24 11:57:31;;;;;;;30.48;4.55;;;10.60;99.90;;;;;;5024391;28;20250;-76
2022/12/24 11:59:57;;;;;;;28.35;5.03;;;10.70;99.90;;;;;;5019130;28;20180;-76
2022/12/24 12:02:32;;;;;;;39.65;5.88;;;10.60;99.90;;;;;;5031174;28;20179;-75
2022/12/24 12:05:20;;;;;;;30.38;5.03;;;10.60;99.90;;;;;;5026038;28;20274;-76
2022/12/24 12:07:52;;;;;;;36.65;5.40;;;10.60;99.90;;;;;;5014406;28;20333;-76
2022/12/24 12:10:26;;;;;;;40.63;5.57;;;10.60;99.90;;;;;;5024020;28;20211;-76
2022/12/24 12:13:10;;;;;;;34.85;5.63;;;10.60;99.90;;;;;;5024883;28;20187;-76
2022/12/24 12:16:11;;;;;;;33.80;5.50;;;10.60;99.90;;;;;;5033360;28;21005;-75
2022/12/24 12:18:46;;;;;;;32.35;4.78;;;10.60;99.90;;;;;;5028353;28;20187;-76
2022/12/24 12:21:20;;;;;;;26.73;4.07;;;10.60;99.90;;;;;;5029597;28;20188;-76
2022/12/24 12:24:13;;;;;;;31.15;4.68;;;10.60;99.90;;;;;;5021450;28;20176;-76
2022/12/24 12:26:41;;;;;;;30.83;5.05;;;10.60;99.90;;;;;;5018900;28;20207;-76
2022/12/24 12:29:35;;;;;;;30.95;5.22;;;10.50;99.90;;;;;;5014591;28;20216;-76
2022/12/24 12:32:07;;;;;;;22.83;4.35;;;10.50;99.90;;;;;;5021977;28;20179;-75
2022/12/24 12:34:46;;;;;;;27.98;4.47;;;10.50;99.90;;;;;;5044984;28;20183;-76
2022/12/24 12:37:55;;;;;;;26.95;4.40;;;10.50;99.90;;;;;;5027563;28;20198;-76
2022/12/24 12:40:40;;;;;;;24.10;4.45;;;10.50;99.90;;;;;;5000551;28;20719;-76
2022/12/24 12:43:26;;;;;;;30.80;4.75;;;10.50;99.90;;;;;;5009163;28;20212;-76
2022/12/24 12:45:59;;;;;;;23.20;4.13;;;10.50;99.90;;;;;;5024040;28;20650;-75
2022/12/24 12:48:31;;;;;;;33.80;5.03;;;10.50;99.90;;;;;;5031998;28;20195;-76
2022/12/24 12:51:36;;;;;;;33.15;5.47;;;10.60;99.90;;;;;;5018069;28;20212;-77
2022/12/24 12:54:39;;;;;;;34.00;4.55;;;10.60;99.90;;;;;;5020605;28;20196;-76
2022/12/24 12:57:12;;;;;;;25.38;4.13;;;10.60;99.90;;;;;;4979791;28;1108331;-76
2022/12/24 12:59:49;;;;;;;35.53;5.28;;;10.60;99.90;;;;;;5032621;28;20176;-75
2022/12/24 13:03:02;;;;;;;29.80;4.63;;;10.60;99.90;;;;;;5029656;28;20200;-74
2022/12/24 13:05:34;;;;;;;30.35;4.90;;;10.70;99.90;;;;;;4998869;28;20652;-77
2022/12/24 13:08:29;;;;;;;37.53;5.25;;;10.70;99.90;;;;;;5032495;28;20654;-76
2022/12/24 13:11:07;;;;;;;37.35;5.10;;;10.60;99.90;;;;;;5032191;28;20200;-75